createdAt,value
2022-09-29T00:01:06.855Z,1.60
2022-09-29T00:06:29.971Z,2.27
2022-09-29T00:11:57.954Z,2.13
2022-09-29T00:17:21.052Z,2.30
2022-09-29T00:22:44.143Z,2.50
2022-09-29T00:28:08.554Z,1.90
2022-09-29T00:33:32.663Z,3.93
2022-09-29T00:38:55.854Z,3.20
2022-09-29T00:44:59.777Z,4.70
2022-09-29T00:50:24.997Z,5.70
2022-09-29T00:55:50.031Z,4.20
2022-09-29T01:01:14.750Z,3.80
2022-09-29T01:06:40.781Z,3.57
2022-09-29T01:12:04.008Z,5.53
2022-09-29T01:17:28.511Z,7.10
2022-09-29T01:23:26.333Z,5.80
2022-09-29T01:29:21.841Z,3.67
2022-09-29T01:34:51.778Z,3.47
2022-09-29T01:40:16.861Z,4.00
2022-09-29T01:45:43.176Z,4.03
2022-09-29T01:51:11.098Z,4.17
2022-09-29T01:56:37.544Z,5.63
2022-09-29T02:02:04.321Z,5.33
2022-09-29T02:07:34.147Z,3.80
2022-09-29T02:12:59.070Z,9.30
2022-09-29T02:18:24.343Z,6.23
2022-09-29T02:23:48.750Z,4.43
2022-09-29T02:29:12.046Z,4.00
2022-09-29T02:34:41.273Z,5.03
2022-09-29T02:40:16.997Z,3.30
2022-09-29T02:45:44.359Z,3.20
2022-09-29T02:51:13.921Z,6.13
2022-09-29T02:56:43.135Z,5.33
2022-09-29T03:02:06.238Z,3.33
2022-09-29T03:07:29.292Z,4.73
2022-09-29T03:12:53.790Z,6.47
2022-09-29T03:18:16.829Z,5.03
2022-09-29T03:23:40.662Z,5.80
2022-09-29T03:29:05.161Z,6.93
2022-09-29T03:34:28.283Z,6.90
2022-09-29T03:39:51.345Z,6.00
2022-09-29T03:45:15.970Z,7.20
2022-09-29T03:50:39.121Z,5.23
2022-09-29T03:56:02.941Z,4.57
2022-09-29T04:01:27.479Z,3.87
2022-09-29T04:06:50.578Z,3.97
2022-09-29T04:12:13.670Z,5.83
2022-09-29T04:17:38.102Z,5.30
2022-09-29T04:23:01.558Z,6.30
2022-09-29T04:28:24.983Z,5.57
2022-09-29T04:33:49.435Z,3.63
2022-09-29T04:39:13.074Z,5.63
2022-09-29T04:44:36.148Z,4.97
2022-09-29T04:50:00.576Z,4.13
2022-09-29T04:55:23.931Z,3.03
2022-09-29T05:00:47.074Z,2.27
2022-09-29T05:06:11.818Z,3.80
2022-09-29T05:11:34.957Z,3.73
2022-09-29T05:16:58.598Z,2.90
2022-09-29T05:22:24.579Z,2.60
2022-09-29T05:27:47.803Z,3.80
2022-09-29T05:33:11.079Z,4.03
2022-09-29T05:38:36.727Z,3.10
2022-09-29T05:44:01.491Z,4.83
2022-09-29T05:49:24.662Z,6.87
2022-09-29T05:54:51.108Z,8.03
2022-09-29T06:00:14.374Z,7.20
2022-09-29T06:05:40.081Z,6.03
2022-09-29T06:11:10.085Z,6.87
2022-09-29T06:16:34.805Z,9.53
2022-09-29T06:21:57.963Z,8.20
2022-09-29T06:27:22.470Z,6.13
2022-09-29T06:32:45.518Z,7.87
2022-09-29T06:38:08.606Z,10.00
2022-09-29T06:43:33.018Z,8.33
2022-09-29T06:48:56.242Z,9.73
2022-09-29T06:54:21.503Z,9.17
2022-09-29T06:59:46.135Z,5.47
2022-09-29T07:05:10.105Z,4.30
2022-09-29T07:10:33.182Z,3.97
2022-09-29T07:15:57.791Z,7.40
2022-09-29T07:21:21.983Z,6.20
2022-09-29T07:26:45.281Z,11.87
2022-09-29T07:32:21.361Z,14.70
2022-09-29T07:37:52.469Z,17.30
2022-09-29T07:43:15.508Z,13.73
2022-09-29T07:48:40.170Z,15.47
2022-09-29T07:54:04.408Z,18.63
2022-09-29T07:59:27.456Z,14.77
2022-09-29T08:04:54.801Z,24.33
2022-09-29T08:10:20.800Z,21.10
2022-09-29T08:15:44.066Z,24.07
2022-09-29T08:21:09.158Z,17.00
2022-09-29T08:26:42.755Z,23.37
2022-09-29T08:32:07.227Z,18.90
2022-09-29T08:37:35.108Z,18.63
2022-09-29T08:43:03.156Z,16.90
2022-09-29T08:48:27.943Z,19.03
2022-09-29T08:54:02.338Z,16.40
2022-09-29T08:59:28.825Z,16.47
2022-09-29T09:05:21.558Z,17.97
2022-09-29T09:10:47.702Z,16.20
2022-09-29T09:16:19.485Z,14.13
2022-09-29T09:21:45.122Z,8.97
2022-09-29T09:27:15.371Z,8.70
2022-09-29T09:32:43.298Z,3.73
2022-09-29T09:38:12.720Z,8.10
2022-09-29T09:43:40.993Z,1.27
2022-09-29T09:49:09.263Z,2.93
2022-09-29T09:54:34.909Z,2.47
2022-09-29T10:00:09.930Z,4.80
2022-09-29T10:05:38.977Z,2.00
2022-09-29T10:11:02.188Z,2.13
2022-09-29T10:16:31.671Z,1.63
2022-09-29T10:21:54.787Z,2.93
2022-09-29T10:27:20.213Z,1.43
2022-09-29T10:32:45.520Z,2.20
2022-09-29T10:38:18.138Z,1.80
2022-09-29T10:43:42.936Z,1.50
2022-09-29T10:49:15.198Z,1.50
2022-09-29T10:54:40.767Z,1.83
2022-09-29T11:00:06.006Z,0.90
2022-09-29T11:05:30.412Z,1.30
2022-09-29T11:11:06.075Z,3.20
2022-09-29T11:16:32.360Z,4.00
2022-09-29T11:22:30.112Z,1.63
2022-09-29T11:28:10.397Z,5.13
2022-09-29T11:33:40.474Z,3.37
2022-09-29T11:39:21.099Z,1.10
2022-09-29T11:44:59.799Z,2.87
2022-09-29T11:50:31.935Z,0.90
2022-09-29T11:56:06.006Z,1.77
2022-09-29T12:01:41.578Z,1.47
2022-09-29T12:07:20.111Z,1.10
2022-09-29T12:12:47.335Z,0.80
2022-09-29T12:18:15.301Z,1.63
2022-09-29T12:23:39.952Z,2.97
2022-09-29T12:29:08.865Z,1.60
2022-09-29T12:34:40.789Z,1.63
2022-09-29T12:40:07.644Z,1.10
2022-09-29T12:45:36.597Z,1.13
2022-09-29T12:51:03.005Z,0.73
2022-09-29T12:56:30.929Z,1.23
2022-09-29T13:01:57.372Z,0.70
2022-09-29T13:07:51.836Z,1.47
2022-09-29T13:13:42.832Z,1.60
2022-09-29T13:19:45.844Z,1.67
2022-09-29T13:25:17.825Z,1.33
2022-09-29T13:30:41.200Z,0.60
2022-09-29T13:36:05.958Z,2.20
2022-09-29T13:41:37.298Z,1.47
2022-09-29T13:47:31.448Z,1.07
2022-09-29T13:52:55.862Z,0.77
2022-09-29T13:58:24.048Z,0.73
2022-09-29T14:03:47.602Z,1.23
2022-09-29T14:09:16.554Z,2.07
2022-09-29T14:14:41.635Z,1.67
2022-09-29T14:20:08.710Z,0.80
2022-09-29T14:25:53.575Z,1.37
2022-09-29T14:31:23.916Z,1.50
2022-09-29T14:36:50.909Z,1.60
2022-09-29T14:42:18.379Z,5.27
2022-09-29T14:48:02.883Z,1.30
2022-09-29T14:53:43.480Z,1.23
2022-09-29T14:59:17.765Z,1.30
2022-09-29T15:04:43.866Z,1.30
2022-09-29T15:10:22.103Z,1.53
2022-09-29T15:15:49.037Z,0.60
2022-09-29T15:21:17.044Z,4.00
2022-09-29T15:26:40.452Z,1.10
2022-09-29T15:32:05.727Z,1.37
2022-09-29T15:37:52.363Z,2.33
2022-09-29T15:43:23.126Z,1.20
2022-09-29T15:49:17.322Z,2.27
2022-09-29T15:54:44.893Z,2.00
2022-09-29T16:00:54.847Z,1.00
2022-09-29T16:06:23.584Z,1.30
2022-09-29T16:11:46.963Z,0.60
2022-09-29T16:17:10.629Z,1.20
2022-09-29T16:22:35.096Z,0.57
2022-09-29T16:27:59.532Z,0.63
2022-09-29T16:33:23.485Z,0.40
2022-09-29T16:38:49.795Z,0.40
2022-09-29T16:44:16.387Z,1.30
2022-09-29T16:49:46.490Z,1.90
2022-09-29T16:55:18.462Z,0.97
2022-09-29T17:00:41.581Z,2.50
2022-09-29T17:06:05.565Z,1.00
2022-09-29T17:11:30.029Z,1.20
2022-09-29T17:16:53.456Z,1.87
2022-09-29T17:22:34.933Z,0.60
2022-09-29T17:28:15.126Z,3.73
2022-09-29T17:33:41.846Z,3.17
2022-09-29T17:39:05.220Z,1.20
2022-09-29T17:44:30.051Z,1.40
2022-09-29T17:49:53.298Z,1.60
2022-09-29T17:55:16.642Z,2.60
2022-09-29T18:00:41.381Z,3.47
2022-09-29T18:06:07.104Z,2.00
2022-09-29T18:11:32.754Z,1.93
2022-09-29T18:16:57.344Z,1.10
2022-09-29T18:22:20.401Z,1.47
2022-09-29T18:27:43.555Z,6.67
2022-09-29T18:33:12.341Z,10.07
2022-09-29T18:38:35.583Z,8.10
2022-09-29T18:43:59.700Z,6.63
2022-09-29T18:49:24.846Z,7.17
2022-09-29T18:54:48.010Z,6.13
2022-09-29T19:00:14.405Z,5.27
2022-09-29T19:05:41.886Z,6.47
2022-09-29T19:11:05.099Z,3.33
2022-09-29T19:16:30.935Z,3.70
2022-09-29T19:21:55.446Z,8.23
2022-09-29T19:27:18.500Z,8.27
2022-09-29T19:32:42.155Z,11.00
2022-09-29T19:38:06.627Z,12.00
2022-09-29T19:43:29.770Z,13.40
2022-09-29T19:48:52.825Z,12.70
2022-09-29T19:54:19.235Z,6.33
2022-09-29T19:59:43.917Z,9.80
2022-09-29T20:05:08.720Z,6.00
2022-09-29T20:10:33.601Z,3.13
2022-09-29T20:15:56.627Z,3.53
2022-09-29T20:21:19.682Z,3.47
2022-09-29T20:26:44.652Z,3.10
2022-09-29T20:32:08.563Z,10.00
2022-09-29T20:37:31.648Z,3.67
2022-09-29T20:42:56.310Z,3.67
2022-09-29T20:48:19.400Z,4.17
2022-09-29T20:53:43.819Z,1.60
2022-09-29T20:59:10.753Z,1.50
2022-09-29T21:04:33.853Z,4.10
2022-09-29T21:09:56.997Z,2.83
2022-09-29T21:15:21.407Z,3.53
2022-09-29T21:20:44.456Z,2.73
2022-09-29T21:26:13.107Z,2.30
2022-09-29T21:31:37.662Z,3.27
2022-09-29T21:37:00.756Z,3.53
2022-09-29T21:42:24.404Z,3.07
2022-09-29T21:48:06.273Z,6.73
2022-09-29T21:53:31.536Z,4.93
2022-09-29T21:58:56.392Z,4.27
2022-09-29T22:04:21.540Z,2.57
2022-09-29T22:09:45.266Z,2.97
2022-09-29T22:15:09.002Z,3.70
2022-09-29T22:20:33.952Z,3.83
2022-09-29T22:25:57.711Z,4.07
2022-09-29T22:31:20.823Z,4.00
2022-09-29T22:36:45.352Z,2.70
2022-09-29T22:42:08.436Z,4.27
2022-09-29T22:47:31.588Z,3.97
2022-09-29T22:52:56.500Z,4.70
2022-09-29T22:58:19.740Z,7.70
2022-09-29T23:03:44.435Z,3.33
2022-09-29T23:09:10.425Z,4.90
2022-09-29T23:14:33.562Z,5.47
2022-09-29T23:19:56.681Z,5.10
2022-09-29T23:25:21.166Z,5.07
2022-09-29T23:30:44.274Z,4.17
2022-09-29T23:36:08.845Z,5.63
2022-09-29T23:41:34.614Z,4.97
2022-09-29T23:46:58.205Z,5.07
2022-09-29T23:52:23.881Z,5.13
2022-09-29T23:57:48.252Z,6.17
